Time;durP1;ratioP1;P1;durP2;ratioP2;P2;SDS_P1;SDS_P2;PMS_P1;PMS_P2;Temp;Humidity;BMP_temperature;BMP_pressure;BME280_temperature;BME280_humidity;BME280_pressure;Samples;Min_cycle;Max_cycle;Signal;HPM_P1;HPM_P2
2022/04/20 00:01:52;;;;;;;7.20;5.10;;;8.90;99.90;;;;;;5000383;28;20026;-78
2022/04/20 00:04:18;;;;;;;5.53;4.72;;;8.90;99.90;;;;;;5000214;28;20027;-77
2022/04/20 00:06:44;;;;;;;5.25;4.72;;;8.90;99.90;;;;;;4982820;28;20022;-78
2022/04/20 00:09:10;;;;;;;5.18;4.68;;;8.90;99.90;;;;;;5000296;28;20029;-77
2022/04/20 00:11:36;;;;;;;5.88;5.28;;;8.90;99.90;;;;;;5000184;28;20070;-78
2022/04/20 00:14:02;;;;;;;5.38;4.88;;;8.90;99.90;;;;;;5000023;28;20026;-78
2022/04/20 00:16:28;;;;;;;8.18;4.90;;;8.90;99.90;;;;;;4999255;28;20045;-78
2022/04/20 00:18:54;;;;;;;7.35;5.22;;;8.80;99.90;;;;;;4980761;28;20069;-78
2022/04/20 00:21:19;;;;;;;6.93;5.43;;;8.90;99.90;;;;;;4980682;28;20402;-78
2022/04/20 00:23:45;;;;;;;5.32;4.80;;;8.80;99.90;;;;;;4963408;28;20045;-79
2022/04/20 00:26:11;;;;;;;6.10;5.30;;;8.90;99.90;;;;;;4980554;28;20031;-79
2022/04/20 00:28:37;;;;;;;4.50;4.10;;;8.80;99.90;;;;;;4980159;28;20070;-78
2022/04/20 00:31:03;;;;;;;6.90;4.18;;;8.80;99.90;;;;;;4980220;28;20431;-80
2022/04/20 00:33:29;;;;;;;4.53;4.13;;;8.80;99.90;;;;;;4984717;28;20026;-79
2022/04/20 00:35:54;;;;;;;4.63;4.20;;;8.80;99.90;;;;;;4999789;28;20032;-79
2022/04/20 00:38:20;;;;;;;5.30;4.25;;;8.80;99.90;;;;;;4999756;28;20030;-80
2022/04/20 00:40:48;;;;;;;5.60;4.53;;;8.80;99.90;;;;;;4999529;28;20078;-79
2022/04/20 00:43:14;;;;;;;4.60;4.05;;;8.80;99.90;;;;;;4975005;28;20065;-79
2022/04/20 00:45:44;;;;;;;4.53;4.13;;;8.80;99.90;;;;;;4962595;28;20049;-80
2022/04/20 00:48:12;;;;;;;4.90;4.40;;;8.80;99.90;;;;;;4980279;28;20031;-80
2022/04/20 00:50:42;;;;;;;4.53;4.05;;;8.80;99.90;;;;;;4962894;28;20109;-80
2022/04/20 00:53:08;;;;;;;;;;;8.90;99.90;;;;;;4989526;28;20109;-81
2022/04/20 00:55:34;;;;;;;4.47;3.75;;;8.80;99.90;;;;;;4999680;28;19941;-80
2022/04/20 00:58:00;;;;;;;5.07;3.83;;;8.80;99.90;;;;;;5000047;28;20034;-80
2022/04/20 01:00:27;;;;;;;3.83;3.38;;;8.80;99.90;;;;;;4981996;28;20030;-78
2022/04/20 01:02:54;;;;;;;3.88;3.58;;;8.80;99.90;;;;;;4999498;28;20022;-80
2022/04/20 01:05:21;;;;;;;3.90;3.50;;;8.80;99.90;;;;;;4999326;28;20096;-80
2022/04/20 01:07:48;;;;;;;4.05;3.00;;;8.80;99.90;;;;;;4981234;28;20019;-81
2022/04/20 01:10:14;;;;;;;3.35;3.05;;;8.80;99.90;;;;;;4999047;28;20029;-80
2022/04/20 01:12:44;;;;;;;4.00;3.33;;;8.80;99.90;;;;;;4999102;28;20026;-80
2022/04/20 01:15:12;;;;;;;3.30;3.00;;;8.80;99.90;;;;;;4980953;28;20058;-79
2022/04/20 01:17:38;;;;;;;3.70;3.40;;;8.80;99.90;;;;;;4988964;28;20101;-79
2022/04/20 01:20:12;;;;;;;3.78;3.42;;;8.80;99.90;;;;;;4979413;28;20089;-80
2022/04/20 01:22:38;;;;;;;3.40;3.13;;;8.80;99.90;;;;;;4979362;28;20062;-79
2022/04/20 01:25:05;;;;;;;4.97;3.35;;;8.80;99.90;;;;;;4979433;28;20027;-77
2022/04/20 01:27:31;;;;;;;11.52;3.83;;;8.80;99.90;;;;;;4962050;28;20058;-77
2022/04/20 01:29:56;;;;;;;3.80;3.50;;;8.70;99.90;;;;;;4978930;28;20494;-76
2022/04/20 01:32:22;;;;;;;4.38;3.50;;;8.70;99.90;;;;;;4979411;28;20035;-77
2022/04/20 01:34:48;;;;;;;6.55;3.65;;;8.70;99.90;;;;;;4961750;28;20505;-78
2022/04/20 01:37:14;;;;;;;4.35;3.63;;;8.70;99.90;;;;;;4961736;28;20078;-77
2022/04/20 01:39:40;;;;;;;4.63;3.10;;;8.70;99.90;;;;;;4979008;28;20027;-77
2022/04/20 01:42:08;;;;;;;4.50;3.58;;;8.70;99.90;;;;;;4961299;28;20015;-79
2022/04/20 01:44:33;;;;;;;9.25;3.15;;;8.70;99.90;;;;;;4978622;28;20042;-77
2022/04/20 01:46:59;;;;;;;3.50;3.20;;;8.70;99.90;;;;;;4961592;28;20514;-77
2022/04/20 01:49:25;;;;;;;4.20;3.80;;;8.70;99.90;;;;;;4961442;28;20078;-76
2022/04/20 01:51:51;;;;;;;3.95;3.28;;;8.70;99.90;;;;;;4967889;28;20029;-78
2022/04/20 01:54:20;;;;;;;3.33;3.08;;;8.70;99.90;;;;;;4998326;28;20109;-77
2022/04/20 01:56:48;;;;;;;4.25;3.10;;;8.70;99.90;;;;;;4998428;28;20074;-77
2022/04/20 01:59:14;;;;;;;3.35;3.15;;;8.70;99.90;;;;;;4997748;28;20149;-77
2022/04/20 02:04:24;;;;;;;4.35;3.33;;;8.60;99.90;;;;;;4998121;28;20033;-77
2022/04/20 02:06:50;;;;;;;4.00;3.30;;;8.70;99.90;;;;;;4998070;28;20022;-81
2022/04/20 02:09:16;;;;;;;5.22;2.85;;;8.70;99.90;;;;;;4980543;28;20037;-77
2022/04/20 02:11:42;;;;;;;6.90;2.92;;;8.70;99.90;;;;;;4998037;28;20029;-77
2022/04/20 02:14:07;;;;;;;6.25;2.90;;;8.70;99.90;;;;;;4997892;28;20034;-80
2022/04/20 02:16:33;;;;;;;6.35;2.90;;;8.60;99.90;;;;;;4996175;28;20113;-77
2022/04/20 02:18:59;;;;;;;3.10;2.80;;;8.60;99.90;;;;;;4961300;28;20490;-78
2022/04/20 02:21:25;;;;;;;3.20;2.90;;;8.60;99.90;;;;;;4978614;28;20066;-79
2022/04/20 02:23:51;;;;;;;3.15;2.85;;;8.70;99.90;;;;;;4978616;28;20080;-79
2022/04/20 02:26:17;;;;;;;5.38;3.00;;;8.70;99.90;;;;;;4961226;28;20391;-79
2022/04/20 02:28:43;;;;;;;11.48;3.45;;;8.70;99.90;;;;;;4978176;28;20018;-78
2022/04/20 02:31:08;;;;;;;3.30;3.00;;;8.60;99.90;;;;;;4961186;28;20034;-78
2022/04/20 02:33:34;;;;;;;5.53;3.60;;;8.60;99.90;;;;;;4978735;28;20026;-78
2022/04/20 02:36:01;;;;;;;3.55;3.25;;;8.60;99.90;;;;;;4978243;28;20487;-78
2022/04/20 02:38:28;;;;;;;3.75;3.20;;;8.60;99.90;;;;;;4978799;28;20027;-78
2022/04/20 02:40:54;;;;;;;3.10;2.80;;;8.60;99.90;;;;;;4978087;28;20026;-78
2022/04/20 02:43:20;;;;;;;4.45;3.10;;;8.60;99.90;;;;;;4977995;28;20030;-78
2022/04/20 02:45:46;;;;;;;3.70;3.20;;;8.60;99.90;;;;;;4978147;28;20027;-77
2022/04/20 02:48:12;;;;;;;4.35;2.65;;;8.60;99.90;;;;;;4960939;28;20026;-78
2022/04/20 02:50:38;;;;;;;5.10;2.80;;;8.70;99.90;;;;;;4978226;28;20027;-77
2022/04/20 02:53:04;;;;;;;4.25;2.70;;;8.60;99.90;;;;;;4978273;28;20483;-78
2022/04/20 02:55:30;;;;;;;2.88;2.67;;;8.60;99.90;;;;;;4981432;28;20097;-77
2022/04/20 02:57:56;;;;;;;3.67;2.95;;;8.70;99.90;;;;;;4982194;28;20031;-77
2022/04/20 03:00:23;;;;;;;3.28;2.97;;;8.60;99.90;;;;;;4981703;28;20031;-78
2022/04/20 03:02:48;;;;;;;5.78;4.22;;;8.70;99.90;;;;;;4966985;28;20133;-77
2022/04/20 03:05:14;;;;;;;7.85;3.10;;;8.70;99.90;;;;;;5001174;28;20026;-78
2022/04/20 03:07:40;;;;;;;3.28;2.90;;;8.60;99.90;;;;;;4984046;28;20528;-77
2022/04/20 03:10:06;;;;;;;5.75;2.80;;;8.60;99.90;;;;;;5001232;28;20022;-77
2022/04/20 03:12:32;;;;;;;5.35;4.18;;;8.60;99.90;;;;;;4983888;28;20026;-77
2022/04/20 03:14:58;;;;;;;5.45;3.13;;;8.60;99.90;;;;;;5000773;28;20050;-78
2022/04/20 03:17:24;;;;;;;3.53;2.88;;;8.60;99.90;;;;;;5001545;28;20023;-77
2022/04/20 03:19:53;;;;;;;3.25;2.95;;;8.60;99.90;;;;;;4983636;28;20033;-77
2022/04/20 03:22:19;;;;;;;3.40;3.10;;;8.60;99.90;;;;;;5001455;28;20026;-77
2022/04/20 03:24:45;;;;;;;3.63;3.05;;;8.50;99.90;;;;;;5001017;28;20030;-78
2022/04/20 03:27:11;;;;;;;3.30;3.00;;;8.50;99.90;;;;;;4983584;28;20034;-78
2022/04/20 03:29:37;;;;;;;4.70;3.00;;;8.60;99.90;;;;;;5000718;28;20085;-78
2022/04/20 03:32:08;;;;;;;5.25;3.38;;;8.50;99.90;;;;;;5001190;28;20026;-78
2022/04/20 03:34:34;;;;;;;2.95;2.75;;;8.50;99.90;;;;;;5000942;28;20110;-78
2022/04/20 03:37:00;;;;;;;3.15;2.80;;;8.50;99.90;;;;;;5000912;28;20062;-78
2022/04/20 03:39:26;;;;;;;3.08;2.80;;;8.60;99.90;;;;;;4983218;28;20026;-78
2022/04/20 03:41:51;;;;;;;3.30;2.70;;;8.50;99.90;;;;;;4983453;28;20034;-76
2022/04/20 03:44:17;;;;;;;4.07;2.50;;;8.50;99.90;;;;;;4982759;28;20022;-78
2022/04/20 03:46:43;;;;;;;3.33;3.03;;;8.50;99.90;;;;;;4983301;28;20077;-78
2022/04/20 03:49:09;;;;;;;4.55;3.08;;;8.50;99.90;;;;;;5000520;28;20072;-78
2022/04/20 03:51:36;;;;;;;5.35;3.10;;;8.50;99.90;;;;;;5000957;28;20037;-78
2022/04/20 03:54:02;;;;;;;7.25;3.03;;;8.50;99.90;;;;;;4983763;28;20501;-77
2022/04/20 03:57:03;;;;;;;7.55;2.97;;;8.50;99.90;;;;;;4983536;28;20394;-79
2022/04/20 03:59:13;;;;;;;3.10;2.90;;;8.50;99.90;;;;;;4999572;28;20041;-77
2022/04/20 04:01:39;;;;;;;5.45;3.20;;;8.40;99.90;;;;;;5000665;28;20030;-77
2022/04/20 04:04:05;;;;;;;3.30;3.00;;;8.50;99.90;;;;;;4999742;28;20027;-78
2022/04/20 04:06:31;;;;;;;5.80;3.63;;;8.50;99.90;;;;;;5000074;28;20023;-78
2022/04/20 04:08:57;;;;;;;3.45;3.15;;;8.50;99.90;;;;;;5000288;28;20558;-78
2022/04/20 04:11:23;;;;;;;3.53;3.20;;;8.50;99.90;;;;;;4982782;28;20033;-78
2022/04/20 04:13:48;;;;;;;3.20;2.92;;;8.50;99.90;;;;;;4999735;28;20027;-78
2022/04/20 04:16:14;;;;;;;3.65;3.35;;;8.50;99.90;;;;;;4999973;28;20046;-78
2022/04/20 04:18:40;;;;;;;3.20;2.97;;;8.50;99.90;;;;;;4964110;28;20023;-78
2022/04/20 04:21:06;;;;;;;3.08;2.83;;;8.50;99.90;;;;;;4980844;28;20034;-78
2022/04/20 04:23:32;;;;;;;5.10;3.35;;;8.60;99.90;;;;;;4963225;28;20054;-78
2022/04/20 04:25:57;;;;;;;4.63;4.03;;;8.60;99.90;;;;;;4963136;28;20078;-78
2022/04/20 04:28:23;;;;;;;3.45;3.15;;;8.60;99.90;;;;;;4980286;28;20027;-77
2022/04/20 04:30:49;;;;;;;3.72;3.13;;;8.60;99.90;;;;;;4963292;28;20026;-78
2022/04/20 04:33:15;;;;;;;3.75;3.30;;;8.60;99.90;;;;;;4980167;28;20019;-78
2022/04/20 04:35:40;;;;;;;3.30;2.95;;;8.50;99.90;;;;;;4980239;28;20038;-78
2022/04/20 04:38:06;;;;;;;3.15;2.70;;;8.60;99.90;;;;;;4962988;28;20042;-78
2022/04/20 04:40:32;;;;;;;3.28;2.97;;;8.50;99.90;;;;;;4980135;28;20031;-78
2022/04/20 04:42:58;;;;;;;3.08;2.88;;;8.50;99.90;;;;;;4980148;28;20027;-78
2022/04/20 04:50:52;;;;;;;2.90;2.70;;;8.50;99.90;;;;;;4999403;28;20038;-78
2022/04/20 04:53:18;;;;;;;3.30;3.00;;;8.50;99.90;;;;;;4982103;28;20026;-78
2022/04/20 04:55:44;;;;;;;4.43;2.70;;;8.50;99.90;;;;;;4999327;28;20442;-78
2022/04/20 04:58:10;;;;;;;2.90;2.60;;;8.60;99.90;;;;;;4999280;28;20045;-78
2022/04/20 05:00:36;;;;;;;2.97;2.70;;;8.60;99.90;;;;;;4981547;28;20110;-78
2022/04/20 05:03:01;;;;;;;3.22;2.92;;;8.60;99.90;;;;;;4999398;28;20878;-77
2022/04/20 05:05:27;;;;;;;3.40;3.20;;;8.60;99.90;;;;;;4981392;28;20022;-78
2022/04/20 05:07:54;;;;;;;2.95;2.75;;;8.60;99.90;;;;;;4981760;28;20066;-78
2022/04/20 05:10:23;;;;;;;2.97;2.78;;;8.70;99.90;;;;;;4981664;28;20023;-77
2022/04/20 05:12:49;;;;;;;4.30;3.33;;;8.70;99.90;;;;;;4981573;28;20034;-77
2022/04/20 05:15:15;;;;;;;4.72;4.32;;;8.70;99.90;;;;;;4977750;28;20050;-77
2022/04/20 05:17:40;;;;;;;8.13;3.45;;;8.70;99.90;;;;;;4968512;28;20039;-77
2022/04/20 05:20:07;;;;;;;3.67;3.38;;;8.70;99.90;;;;;;4958987;28;20421;-78
2022/04/20 05:22:33;;;;;;;5.63;2.90;;;8.70;99.90;;;;;;4962679;28;20046;-77
2022/04/20 05:24:58;;;;;;;3.95;2.88;;;8.70;99.90;;;;;;4959427;28;20402;-77
2022/04/20 05:27:24;;;;;;;2.70;2.50;;;8.80;99.90;;;;;;4968148;28;20015;-78
2022/04/20 05:29:50;;;;;;;3.03;2.72;;;8.70;99.90;;;;;;4974634;28;20093;-78
2022/04/20 05:32:16;;;;;;;4.32;3.58;;;8.70;99.90;;;;;;4977906;28;20055;-77
2022/04/20 05:34:42;;;;;;;3.42;2.90;;;8.70;99.90;;;;;;4975223;28;20027;-77
2022/04/20 05:42:36;;;;;;;2.72;2.53;;;8.80;99.90;;;;;;4962216;28;20099;-78
2022/04/20 05:45:03;;;;;;;5.15;2.70;;;8.80;99.90;;;;;;4977962;28;20498;-78
2022/04/20 05:47:29;;;;;;;4.72;2.92;;;8.80;99.90;;;;;;4979246;28;20146;-78
2022/04/20 05:49:55;;;;;;;3.25;2.85;;;8.80;99.90;;;;;;4977968;28;20031;-78
2022/04/20 05:52:21;;;;;;;3.10;2.80;;;8.80;99.90;;;;;;4977183;28;20026;-78
2022/04/20 05:54:47;;;;;;;3.22;2.78;;;8.90;99.90;;;;;;4977909;28;20559;-78
2022/04/20 05:57:12;;;;;;;2.97;2.50;;;9.00;99.90;;;;;;4975695;28;20027;-78
2022/04/20 05:59:38;;;;;;;3.88;2.92;;;9.00;99.90;;;;;;4976353;28;20022;-78
2022/04/20 06:02:04;;;;;;;3.00;2.80;;;9.10;99.90;;;;;;4975568;28;20514;-78
2022/04/20 06:04:30;;;;;;;4.95;2.95;;;9.10;99.90;;;;;;4976851;28;20031;-78
2022/04/20 06:10:18;;;;;;;2.88;2.60;;;9.10;99.90;;;;;;4959687;28;20027;-79
2022/04/20 06:12:44;;;;;;;3.53;3.20;;;9.20;99.90;;;;;;4958089;28;20035;-79
2022/04/20 06:15:10;;;;;;;2.80;2.60;;;9.20;99.90;;;;;;4970432;28;20399;-79
2022/04/20 06:17:35;;;;;;;4.78;3.08;;;9.20;99.90;;;;;;4971137;28;20018;-79
2022/04/20 06:20:02;;;;;;;2.80;2.60;;;9.20;99.90;;;;;;4991033;28;20027;-78
2022/04/20 06:22:28;;;;;;;2.90;2.60;;;9.20;99.90;;;;;;4961349;28;20030;-79
2022/04/20 06:24:54;;;;;;;6.78;2.50;;;9.20;99.90;;;;;;4978414;28;20033;-78
2022/04/20 06:27:19;;;;;;;3.58;2.50;;;9.20;99.90;;;;;;4978267;28;20048;-78
2022/04/20 06:29:45;;;;;;;3.13;2.65;;;9.20;99.90;;;;;;4991410;28;20049;-78
2022/04/20 06:32:11;;;;;;;3.10;2.60;;;9.20;99.90;;;;;;4988134;28;20073;-78
2022/04/20 06:34:37;;;;;;;3.00;2.70;;;9.30;99.90;;;;;;4993185;28;20450;-78
2022/04/20 06:37:05;;;;;;;4.80;2.80;;;9.30;99.90;;;;;;4979515;28;20030;-78
2022/04/20 06:39:32;;;;;;;2.88;2.65;;;9.30;99.90;;;;;;4997902;28;20023;-78
2022/04/20 06:41:57;;;;;;;4.38;2.50;;;9.30;99.90;;;;;;4987707;28;20404;-78
2022/04/20 06:44:23;;;;;;;2.72;2.50;;;9.20;99.90;;;;;;4960784;28;20058;-77
2022/04/20 06:46:49;;;;;;;4.97;2.60;;;9.30;99.90;;;;;;4968266;28;20027;-78
2022/04/20 06:49:16;;;;;;;2.63;2.42;;;9.30;99.90;;;;;;4962186;28;20102;-78
2022/04/20 06:59:54;;;;;;;3.08;2.80;;;9.20;99.90;;;;;;4978651;28;20026;-77
2022/04/20 07:02:23;;;;;;;2.80;2.40;;;9.30;99.90;;;;;;4980883;28;20455;-77
2022/04/20 07:04:49;;;;;;;2.60;2.40;;;9.30;99.90;;;;;;4978490;28;20027;-77
2022/04/20 07:07:15;;;;;;;3.08;2.50;;;9.20;99.90;;;;;;4960812;28;20053;-78
2022/04/20 07:09:40;;;;;;;2.85;2.65;;;9.30;99.90;;;;;;4978146;28;20035;-78
2022/04/20 07:12:06;;;;;;;2.90;2.30;;;9.40;99.90;;;;;;4980270;28;20023;-78
2022/04/20 07:14:32;;;;;;;2.60;2.40;;;9.50;99.90;;;;;;4990335;28;20046;-78
2022/04/20 07:16:59;;;;;;;3.75;2.40;;;9.50;99.90;;;;;;4992536;28;20066;-78
2022/04/20 07:19:24;;;;;;;4.80;2.50;;;9.60;99.90;;;;;;4961812;28;20027;-78
2022/04/20 07:21:50;;;;;;;3.90;2.40;;;9.60;99.90;;;;;;4992726;28;20053;-78
2022/04/20 07:24:16;;;;;;;3.75;2.30;;;9.60;99.90;;;;;;4978370;28;20097;-78
2022/04/20 07:26:42;;;;;;;2.10;2.00;;;9.60;99.90;;;;;;4979257;28;20479;-78
2022/04/20 07:29:08;;;;;;;3.45;2.20;;;9.60;99.90;;;;;;4976467;28;20097;-77
2022/04/20 07:31:33;;;;;;;3.10;2.40;;;9.70;99.90;;;;;;5000217;28;20022;-78
2022/04/20 07:33:59;;;;;;;2.60;2.10;;;9.70;99.90;;;;;;4968712;28;20022;-78
2022/04/20 07:36:25;;;;;;;2.97;2.42;;;9.60;99.90;;;;;;4980943;28;20023;-78
2022/04/20 07:38:51;;;;;;;4.85;2.20;;;9.70;99.90;;;;;;4977963;28;20027;-78
2022/04/20 07:41:17;;;;;;;3.05;2.55;;;9.70;99.90;;;;;;4975149;28;20494;-77
2022/04/20 07:43:43;;;;;;;2.55;2.10;;;9.80;99.90;;;;;;4962968;28;20034;-76
2022/04/20 07:46:08;;;;;;;3.05;2.10;;;9.90;99.90;;;;;;4969355;28;20510;-77
2022/04/20 07:48:34;;;;;;;2.33;2.13;;;9.90;99.90;;;;;;4972174;28;20038;-79
2022/04/20 07:51:03;;;;;;;2.30;2.03;;;10.10;99.90;;;;;;4982587;28;20398;-79
2022/04/20 07:53:29;;;;;;;2.53;2.20;;;10.20;99.90;;;;;;5000146;28;20053;-79
2022/04/20 07:55:55;;;;;;;2.17;1.92;;;10.10;99.90;;;;;;4995012;28;20229;-79
2022/04/20 07:58:21;;;;;;;2.47;2.28;;;10.20;99.90;;;;;;4981709;28;20034;-79
2022/04/20 08:00:49;;;;;;;3.50;2.20;;;10.20;99.90;;;;;;4982066;28;20072;-78
2022/04/20 08:03:16;;;;;;;2.10;1.90;;;10.20;99.90;;;;;;4982402;28;20034;-79
2022/04/20 08:05:47;;;;;;;2.67;2.00;;;10.20;99.90;;;;;;4994824;28;20023;-78
2022/04/20 08:08:13;;;;;;;3.67;1.92;;;10.10;99.90;;;;;;4990050;28;21474;-79
2022/04/20 08:10:39;;;;;;;2.38;2.10;;;10.10;99.90;;;;;;4993976;28;20027;-78
2022/04/20 08:15:50;;;;;;;5.05;3.05;;;10.30;99.90;;;;;;4994693;28;20065;-77
2022/04/20 08:18:17;;;;;;;2.50;2.30;;;10.30;99.90;;;;;;4997340;28;20030;-77
2022/04/20 08:20:43;;;;;;;4.82;2.30;;;10.40;99.90;;;;;;4963108;28;20023;-77
2022/04/20 08:23:09;;;;;;;2.70;2.22;;;10.50;99.90;;;;;;4980669;28;20118;-77
2022/04/20 08:25:34;;;;;;;2.40;2.20;;;10.40;99.90;;;;;;4970544;28;20022;-77
2022/04/20 08:28:00;;;;;;;3.35;2.63;;;10.40;99.90;;;;;;4980319;28;20035;-77
2022/04/20 08:30:28;;;;;;;2.53;2.33;;;10.60;99.90;;;;;;4979984;28;20022;-77
2022/04/20 08:32:53;;;;;;;2.45;2.10;;;10.60;99.90;;;;;;4977799;28;20679;-77
2022/04/20 08:35:19;;;;;;;2.72;2.25;;;10.60;99.90;;;;;;4980926;28;20364;-77
2022/04/20 08:37:45;;;;;;;4.18;2.10;;;10.70;99.90;;;;;;4982271;28;20027;-77
2022/04/20 08:40:12;;;;;;;6.03;2.25;;;10.80;99.90;;;;;;4980904;28;20387;-76
2022/04/20 08:42:40;;;;;;;5.65;2.92;;;10.90;99.90;;;;;;4973023;28;20111;-78
2022/04/20 08:45:06;;;;;;;4.75;2.53;;;10.80;99.90;;;;;;4972155;28;20030;-78
2022/04/20 08:47:37;;;;;;;2.60;2.40;;;10.90;99.90;;;;;;4981382;28;20121;-77
2022/04/20 08:50:05;;;;;;;3.17;2.17;;;10.80;99.90;;;;;;4963280;28;20023;-77
2022/04/20 08:52:37;;;;;;;4.15;2.75;;;10.90;99.90;;;;;;4979215;28;20035;-77
2022/04/20 08:55:13;;;;;;;4.45;3.05;;;10.90;99.90;;;;;;4980979;28;20026;-77
2022/04/20 08:57:40;;;;;;;3.28;2.40;;;11.10;99.90;;;;;;4970807;28;20023;-78
2022/04/20 09:00:11;;;;;;;3.33;2.50;;;11.20;99.90;;;;;;4999341;28;20026;-79
2022/04/20 09:02:37;;;;;;;2.60;2.40;;;11.20;99.90;;;;;;4981077;28;20105;-80
2022/04/20 09:05:04;;;;;;;2.28;2.08;;;11.10;99.90;;;;;;4989475;28;20441;-80
2022/04/20 09:07:33;;;;;;;2.47;2.28;;;11.30;99.90;;;;;;4970549;28;20076;-80
2022/04/20 09:10:03;;;;;;;2.85;2.53;;;11.30;99.90;;;;;;4992730;28;20022;-81
2022/04/20 09:12:29;;;;;;;2.50;2.30;;;11.50;99.90;;;;;;4970550;28;20060;-81
2022/04/20 09:14:56;;;;;;;2.25;2.05;;;11.80;99.90;;;;;;4977362;28;20128;-81
2022/04/20 09:17:24;;;;;;;2.42;2.22;;;12.10;99.90;;;;;;4998267;28;20050;-83
2022/04/20 09:19:55;;;;;;;2.35;2.10;;;12.10;99.90;;;;;;4997958;28;20371;-85
2022/04/20 09:22:20;;;;;;;;;;;12.00;99.90;;;;;;4999565;28;20534;-81
2022/04/20 09:25:11;;;;;;;4.15;2.20;;;11.90;99.90;;;;;;4998008;28;19910;-81
2022/04/20 09:27:41;;;;;;;2.83;2.20;;;11.70;99.90;;;;;;4996878;28;20542;-81
2022/04/20 09:30:15;;;;;;;2.83;2.22;;;11.60;99.90;;;;;;4978882;28;20453;-81
2022/04/20 09:32:44;;;;;;;4.40;2.20;;;11.60;99.90;;;;;;4984898;28;20034;-81
2022/04/20 09:35:12;;;;;;;3.92;2.28;;;11.50;99.90;;;;;;4987012;28;20522;-81
2022/04/20 09:37:40;;;;;;;4.25;2.35;;;11.50;99.90;;;;;;4981390;28;20022;-81
2022/04/20 09:40:12;;;;;;;2.92;2.40;;;11.40;99.90;;;;;;4998200;28;20027;-82
2022/04/20 09:43:04;;;;;;;5.30;2.45;;;11.30;99.90;;;;;;4961813;28;20034;-81
2022/04/20 09:45:30;;;;;;;2.40;2.20;;;11.30;99.90;;;;;;4976535;28;20475;-82
2022/04/20 09:50:42;;;;;;;2.65;2.45;;;11.50;99.90;;;;;;4997716;28;20392;-83
2022/04/20 09:53:12;;;;;;;6.32;3.15;;;11.70;99.90;;;;;;4997277;28;20030;-82
2022/04/20 09:55:39;;;;;;;2.53;2.30;;;11.80;99.90;;;;;;4995555;28;20027;-83
2022/04/20 09:58:21;;;;;;;2.38;2.10;;;11.90;99.90;;;;;;4996370;28;20096;-82
2022/04/20 10:00:48;;;;;;;2.00;1.85;;;11.70;99.90;;;;;;4974960;28;20031;-84
2022/04/20 10:03:31;;;;;;;1.88;1.77;;;11.70;99.90;;;;;;4995976;28;20514;-85
2022/04/20 10:05:59;;;;;;;4.30;2.10;;;11.70;99.90;;;;;;4995184;28;20045;-84
2022/04/20 10:08:25;;;;;;;3.20;2.60;;;11.70;99.90;;;;;;4977848;28;20015;-84
2022/04/20 10:10:55;;;;;;;4.25;2.10;;;11.90;99.90;;;;;;4995206;28;20027;-84
2022/04/20 10:13:22;;;;;;;2.75;1.92;;;11.80;99.90;;;;;;4994064;28;20042;-85
2022/04/20 10:16:05;;;;;;;4.07;2.17;;;11.70;99.90;;;;;;4978865;28;20050;-85
2022/04/20 10:18:34;;;;;;;2.13;1.92;;;11.80;99.90;;;;;;4967518;28;20079;-85
2022/04/20 10:21:01;;;;;;;4.57;2.33;;;11.80;99.90;;;;;;4978993;28;20525;-85
2022/04/20 10:23:31;;;;;;;2.95;2.70;;;11.60;99.90;;;;;;4980148;28;20046;-85
2022/04/20 10:25:59;;;;;;;3.58;2.60;;;11.60;99.90;;;;;;4978888;28;20033;-86
2022/04/20 10:28:42;;;;;;;2.58;2.08;;;11.70;99.90;;;;;;4996217;28;20394;-85
2022/04/20 10:31:18;;;;;;;2.40;2.10;;;11.90;99.90;;;;;;4979241;28;20097;-84
2022/04/20 10:33:45;;;;;;;4.60;2.13;;;11.90;99.90;;;;;;4978655;28;20027;-85
2022/04/20 10:36:27;;;;;;;5.15;1.80;;;12.20;99.90;;;;;;4975552;28;20030;-84
2022/04/20 10:39:22;;;;;;;4.32;1.92;;;12.30;99.90;;;;;;4988247;28;20042;-83
2022/04/20 10:42:11;;;;;;;1.70;1.60;;;12.50;99.90;;;;;;4989215;28;20030;-84
2022/04/20 10:44:56;;;;;;;1.73;1.63;;;12.60;99.90;;;;;;4956739;28;20467;-84
2022/04/20 10:47:26;;;;;;;3.20;1.70;;;12.60;99.90;;;;;;4978397;28;20029;-85
2022/04/20 10:49:53;;;;;;;1.88;1.77;;;12.50;99.90;;;;;;4986571;28;20081;-85
2022/04/20 10:52:30;;;;;;;2.22;1.75;;;12.50;99.90;;;;;;4981241;28;20034;-84
2022/04/20 10:54:56;;;;;;;1.95;1.75;;;12.40;99.90;;;;;;4972828;28;20402;-85
2022/04/20 10:57:37;;;;;;;2.08;1.88;;;12.10;99.90;;;;;;4980307;28;20474;-84
2022/04/20 11:00:18;;;;;;;2.70;2.22;;;12.10;99.90;;;;;;4981940;28;20030;-85
2022/04/20 11:02:51;;;;;;;3.60;1.95;;;12.10;99.90;;;;;;4980068;28;20525;-85
2022/04/20 11:05:22;;;;;;;4.97;2.00;;;12.30;99.90;;;;;;4980184;28;20113;-85
2022/04/20 11:08:00;;;;;;;2.88;1.98;;;12.40;99.90;;;;;;4988665;28;20033;-85
2022/04/20 11:10:27;;;;;;;2.53;1.60;;;12.50;99.90;;;;;;4978042;28;20077;-85
2022/04/20 11:19:03;;;;;;;3.40;1.90;;;12.40;99.90;;;;;;4982527;28;20382;-85
2022/04/20 11:21:29;;;;;;;1.90;1.80;;;12.40;99.90;;;;;;4964447;28;20466;-85
2022/04/20 11:24:11;;;;;;;2.00;1.83;;;12.40;99.90;;;;;;4981791;28;20083;-84
2022/04/20 11:26:41;;;;;;;1.95;1.85;;;12.20;99.90;;;;;;4970584;28;20033;-85
2022/04/20 11:29:15;;;;;;;1.67;1.58;;;12.20;99.90;;;;;;4976687;28;20030;-84
2022/04/20 11:31:47;;;;;;;5.10;1.80;;;12.30;99.90;;;;;;4996572;28;20019;-84
2022/04/20 11:34:18;;;;;;;1.95;1.77;;;12.20;99.90;;;;;;4997184;28;20037;-83
2022/04/20 11:36:51;;;;;;;2.03;1.73;;;12.20;99.90;;;;;;4977724;28;20513;-83
2022/04/20 11:39:19;;;;;;;1.98;1.70;;;12.20;99.90;;;;;;4997036;28;20030;-84
2022/04/20 11:41:46;;;;;;;2.10;1.90;;;12.10;99.90;;;;;;4980444;28;20105;-83
2022/04/20 11:44:32;;;;;;;2.00;1.80;;;12.00;99.90;;;;;;4976629;28;20492;-84
2022/04/20 11:47:03;;;;;;;2.20;2.00;;;11.80;99.90;;;;;;4982746;28;20026;-84
2022/04/20 11:49:42;;;;;;;5.35;1.85;;;11.70;99.90;;;;;;4981470;28;20544;-84
2022/04/20 11:52:14;;;;;;;2.65;2.10;;;11.80;99.90;;;;;;4996874;28;20390;-85
2022/04/20 11:54:46;;;;;;;2.53;2.05;;;11.90;99.90;;;;;;4998961;28;20444;-84
2022/04/20 11:57:12;;;;;;;2.10;1.90;;;11.90;99.90;;;;;;4981708;28;20069;-85
2022/04/20 11:59:48;;;;;;;4.30;1.77;;;11.70;99.90;;;;;;4998450;28;20029;-85
2022/04/20 12:02:15;;;;;;;2.15;1.80;;;11.80;99.90;;;;;;4978872;28;20027;-84
2022/04/20 12:04:46;;;;;;;2.20;2.00;;;11.80;99.90;;;;;;4996639;28;20022;-83
2022/04/20 12:07:13;;;;;;;4.28;1.80;;;11.90;99.90;;;;;;4996512;28;20440;-84
2022/04/20 12:09:42;;;;;;;2.00;1.80;;;11.60;99.90;;;;;;4998228;28;20394;-84
2022/04/20 12:12:12;;;;;;;1.90;1.70;;;11.80;99.90;;;;;;4972290;28;20089;-85
2022/04/20 12:14:39;;;;;;;2.42;2.00;;;12.00;99.90;;;;;;4978187;28;20101;-84
2022/04/20 12:17:14;;;;;;;2.05;1.90;;;12.10;99.90;;;;;;4977228;28;20487;-87
2022/04/20 12:19:41;;;;;;;1.90;1.80;;;12.10;99.90;;;;;;4978965;28;20031;-85
2022/04/20 12:22:08;;;;;;;1.92;1.70;;;12.20;99.90;;;;;;4979083;28;20019;-86
2022/04/20 12:24:34;;;;;;;2.17;1.80;;;12.40;99.90;;;;;;4977563;28;20022;-86
2022/04/20 12:27:00;;;;;;;2.08;1.88;;;12.60;99.90;;;;;;4976695;28;20437;-85
2022/04/20 12:29:31;;;;;;;2.00;1.70;;;12.70;99.90;;;;;;4975650;28;20023;-83
2022/04/20 12:31:57;;;;;;;4.50;1.92;;;12.80;99.90;;;;;;4979287;28;20018;-84
2022/04/20 12:34:25;;;;;;;2.28;1.70;;;12.90;99.90;;;;;;4976032;28;20521;-84
2022/04/20 12:36:58;;;;;;;2.47;1.77;;;12.70;99.90;;;;;;4976110;28;20022;-84
2022/04/20 12:39:35;;;;;;;1.85;1.67;;;12.60;99.90;;;;;;4975023;28;20408;-84
2022/04/20 12:42:09;;;;;;;1.85;1.60;;;12.60;99.90;;;;;;4979572;28;20023;-83
2022/04/20 12:44:39;;;;;;;3.53;1.90;;;12.60;99.90;;;;;;4976065;28;20490;-84
2022/04/20 12:47:10;;;;;;;2.20;1.80;;;12.50;99.90;;;;;;4976237;28;20025;-83
2022/04/20 12:49:36;;;;;;;;;;;12.40;99.90;;;;;;4975797;28;20019;-83
2022/04/20 12:52:19;;;;;;;2.70;1.90;;;12.50;99.90;;;;;;4975850;28;19922;-83
2022/04/20 12:54:57;;;;;;;2.63;2.20;;;12.50;99.90;;;;;;4978726;28;20018;-83
2022/04/20 13:03:09;;;;;;;4.68;1.90;;;12.30;99.90;;;;;;4975239;28;20125;-83
2022/04/20 13:05:38;;;;;;;2.17;1.98;;;12.20;99.90;;;;;;4978497;28;20027;-83
2022/04/20 13:08:05;;;;;;;4.57;2.10;;;12.30;99.90;;;;;;4977833;28;20031;-83
2022/04/20 13:10:38;;;;;;;2.10;1.90;;;12.40;99.90;;;;;;4975805;28;20019;-82
2022/04/20 13:13:04;;;;;;;3.63;2.13;;;12.50;99.90;;;;;;4975191;28;20026;-82
2022/04/20 13:15:30;;;;;;;1.98;1.80;;;12.50;99.90;;;;;;4986982;28;20433;-83
2022/04/20 13:17:57;;;;;;;5.43;1.90;;;12.50;99.90;;;;;;4980663;28;20166;-80
2022/04/20 13:20:28;;;;;;;2.20;2.00;;;12.40;99.90;;;;;;4997241;28;20034;-81
2022/04/20 13:22:55;;;;;;;1.80;1.70;;;12.30;99.90;;;;;;4978959;28;20041;-81
2022/04/20 13:28:06;;;;;;;2.45;1.77;;;12.50;99.90;;;;;;4997229;28;20502;-81
2022/04/20 13:30:38;;;;;;;4.10;1.83;;;12.60;99.90;;;;;;4997283;28;20020;-81
2022/04/20 13:33:10;;;;;;;2.72;1.70;;;12.60;99.90;;;;;;4979259;28;20033;-80
2022/04/20 13:35:37;;;;;;;1.80;1.70;;;12.80;99.90;;;;;;4996234;28;20054;-82
2022/04/20 13:38:03;;;;;;;1.73;1.63;;;12.90;99.90;;;;;;4992849;28;20387;-81
2022/04/20 13:40:33;;;;;;;1.95;1.80;;;13.10;99.90;;;;;;4978059;28;20026;-81
2022/04/20 13:42:59;;;;;;;1.98;1.77;;;13.20;99.90;;;;;;4995655;28;20090;-81